createdAt,value
2018-06-21T00:00:36.700Z,18.33
2018-06-21T00:01:36.593Z,18.26
2018-06-21T00:02:36.753Z,18.19
2018-06-21T00:03:36.418Z,18.34
2018-06-21T00:04:36.324Z,18.22
2018-06-21T00:05:36.218Z,18.23
2018-06-21T00:06:36.127Z,18.18
2018-06-21T00:07:36.035Z,18.18
2018-06-21T00:08:35.942Z,18.15
2018-06-21T00:09:35.842Z,18.10
2018-06-21T00:10:35.752Z,18.07
2018-06-21T00:11:35.659Z,18.05
2018-06-21T00:12:35.555Z,18.22
2018-06-21T00:13:35.496Z,18.10
2018-06-21T00:14:35.393Z,18.18
2018-06-21T00:15:35.274Z,18.11
2018-06-21T00:16:35.182Z,18.16
2018-06-21T00:17:35.087Z,18.15
2018-06-21T00:18:35.095Z,18.10
2018-06-21T00:19:34.901Z,18.15
2018-06-21T00:20:34.806Z,18.05
2018-06-21T00:21:34.715Z,18.04
2018-06-21T00:22:34.608Z,18.10
2018-06-21T00:23:34.521Z,18.04
2018-06-21T00:24:34.431Z,18.00
2018-06-21T00:25:34.330Z,17.97
2018-06-21T00:26:34.239Z,17.97
2018-06-21T00:27:34.142Z,18.04
2018-06-21T00:28:34.050Z,18.07
2018-06-21T00:29:33.951Z,18.01
2018-06-21T00:30:33.862Z,18.03
2018-06-21T00:31:33.772Z,17.97
2018-06-21T00:32:33.671Z,17.97
2018-06-21T00:33:33.576Z,18.00
2018-06-21T00:34:33.483Z,17.97
2018-06-21T00:35:33.385Z,17.97
2018-06-21T00:36:33.300Z,17.95
2018-06-21T00:37:33.198Z,18.00
2018-06-21T00:38:33.108Z,17.97
2018-06-21T00:39:33.002Z,17.98
2018-06-21T00:40:32.911Z,17.94
2018-06-21T00:41:32.825Z,17.94
2018-06-21T00:42:32.721Z,17.95
2018-06-21T00:43:32.628Z,17.97
2018-06-21T00:44:32.538Z,17.98
2018-06-21T00:45:32.439Z,17.94
2018-06-21T00:46:32.350Z,17.87
2018-06-21T00:47:32.255Z,17.85
2018-06-21T00:48:32.163Z,17.78
2018-06-21T00:49:32.056Z,17.85
2018-06-21T00:50:31.965Z,17.83
2018-06-21T00:51:31.880Z,17.80
2018-06-21T00:52:31.777Z,17.85
2018-06-21T00:53:31.686Z,17.70
2018-06-21T00:54:31.592Z,17.80
2018-06-21T00:55:31.487Z,17.71
2018-06-21T00:56:31.396Z,17.82
2018-06-21T00:57:31.308Z,17.70
2018-06-21T00:58:31.206Z,17.80
2018-06-21T00:59:31.113Z,17.82
2018-06-21T01:00:31.022Z,17.78
2018-06-21T01:01:30.926Z,17.74
2018-06-21T01:02:31.126Z,17.70
2018-06-21T01:03:30.739Z,17.79
2018-06-21T01:04:30.637Z,17.74
2018-06-21T01:05:30.542Z,17.72
2018-06-21T01:06:30.449Z,17.68
2018-06-21T01:07:30.351Z,17.65
2018-06-21T01:08:30.263Z,17.67
2018-06-21T01:09:30.165Z,17.59
2018-06-21T01:10:30.063Z,17.72
2018-06-21T01:11:29.974Z,17.64
2018-06-21T01:12:29.894Z,17.59
2018-06-21T01:13:29.784Z,17.51
2018-06-21T01:14:29.692Z,17.49
2018-06-21T01:15:29.594Z,17.48
2018-06-21T01:16:29.506Z,17.45
2018-06-21T01:17:29.406Z,17.39
2018-06-21T01:18:29.314Z,17.41
2018-06-21T01:19:29.215Z,17.44
2018-06-21T01:20:29.123Z,17.41
2018-06-21T01:21:29.088Z,17.49
2018-06-21T01:22:28.926Z,17.51
2018-06-21T01:23:28.838Z,17.52
2018-06-21T01:24:28.747Z,17.54
2018-06-21T01:25:28.673Z,17.52
2018-06-21T01:26:28.549Z,17.48
2018-06-21T01:27:28.455Z,17.51
2018-06-21T01:28:28.354Z,17.51
2018-06-21T01:29:28.266Z,17.46
2018-06-21T01:30:28.175Z,17.56
2018-06-21T01:31:28.071Z,17.46
2018-06-21T01:32:27.979Z,17.46
2018-06-21T01:33:27.891Z,17.44
2018-06-21T01:34:27.789Z,17.57
2018-06-21T01:35:27.696Z,17.54
2018-06-21T01:36:27.605Z,17.52
2018-06-21T01:37:27.501Z,17.56
2018-06-21T01:38:27.411Z,17.46
2018-06-21T01:39:27.323Z,17.59
2018-06-21T01:40:27.217Z,17.60
2018-06-21T01:41:27.123Z,17.64
2018-06-21T01:42:27.031Z,17.59
2018-06-21T01:43:26.929Z,17.59
2018-06-21T01:44:26.839Z,17.64
2018-06-21T01:45:26.752Z,17.76
2018-06-21T01:46:26.650Z,17.71
2018-06-21T01:47:26.552Z,17.76
2018-06-21T01:48:26.461Z,17.79
2018-06-21T01:49:26.361Z,17.79
2018-06-21T01:50:26.272Z,17.79
2018-06-21T01:51:26.191Z,17.72
2018-06-21T01:52:26.078Z,17.76
2018-06-21T01:53:25.986Z,17.82
2018-06-21T01:54:25.881Z,17.82
2018-06-21T01:55:25.792Z,17.83
2018-06-21T01:56:25.702Z,17.67
2018-06-21T01:57:25.899Z,17.76
2018-06-21T01:58:25.523Z,17.72
2018-06-21T01:59:25.417Z,17.70
2018-06-21T02:00:25.314Z,17.70
2018-06-21T02:01:25.220Z,17.68
2018-06-21T02:02:25.127Z,17.60
2018-06-21T02:03:25.031Z,17.63
2018-06-21T02:04:24.938Z,17.59
2018-06-21T02:05:24.832Z,17.60
2018-06-21T02:06:24.741Z,17.71
2018-06-21T02:07:24.914Z,17.71
2018-06-21T02:08:24.544Z,17.70
2018-06-21T02:09:24.462Z,17.65
2018-06-21T02:10:24.366Z,17.70
2018-06-21T02:11:24.259Z,17.67
2018-06-21T02:12:24.169Z,17.65
2018-06-21T02:13:24.082Z,17.65
2018-06-21T02:14:23.979Z,17.74
2018-06-21T02:15:23.891Z,17.76
2018-06-21T02:16:23.812Z,17.72
2018-06-21T02:17:23.694Z,17.82
2018-06-21T02:18:23.602Z,17.76
2018-06-21T02:19:23.501Z,17.76
2018-06-21T02:20:23.412Z,17.82
2018-06-21T02:21:23.314Z,17.78
2018-06-21T02:22:23.213Z,17.87
2018-06-21T02:23:23.121Z,17.92
2018-06-21T02:24:23.033Z,17.98
2018-06-21T02:25:22.932Z,17.97
2018-06-21T02:26:22.841Z,17.92
2018-06-21T02:27:22.734Z,17.87
2018-06-21T02:28:22.643Z,17.90
2018-06-21T02:29:22.570Z,17.98
2018-06-21T02:30:22.453Z,17.92
2018-06-21T02:31:22.361Z,17.97
2018-06-21T02:32:22.270Z,17.92
2018-06-21T02:33:22.164Z,18.05
2018-06-21T02:34:22.153Z,18.04
2018-06-21T02:35:21.986Z,18.07
2018-06-21T02:36:21.882Z,18.04
2018-06-21T02:37:21.790Z,18.04
2018-06-21T02:38:21.686Z,18.10
2018-06-21T02:39:21.593Z,18.05
2018-06-21T02:40:21.509Z,17.98
2018-06-21T02:41:21.402Z,17.98
2018-06-21T02:42:21.311Z,17.98
2018-06-21T02:43:21.205Z,18.04
2018-06-21T02:44:21.113Z,18.07
2018-06-21T02:45:21.026Z,17.98
2018-06-21T02:46:20.923Z,17.94
2018-06-21T02:47:20.835Z,17.97
2018-06-21T02:48:20.743Z,17.87
2018-06-21T02:49:20.635Z,17.92
2018-06-21T02:50:20.546Z,17.92
2018-06-21T02:51:20.456Z,17.86
2018-06-21T02:52:20.603Z,17.80
2018-06-21T02:53:20.259Z,17.89
2018-06-21T02:54:20.200Z,17.83
2018-06-21T02:55:20.066Z,17.85
2018-06-21T02:56:19.977Z,17.86
2018-06-21T02:57:19.877Z,17.68
2018-06-21T02:58:19.785Z,17.76
2018-06-21T02:59:19.677Z,17.70
2018-06-21T03:00:19.585Z,17.70
2018-06-21T03:01:19.500Z,17.78
2018-06-21T03:02:19.395Z,17.71
2018-06-21T03:03:19.307Z,17.78
2018-06-21T03:04:19.215Z,17.86
2018-06-21T03:05:19.109Z,17.92
2018-06-21T03:06:19.018Z,17.95
2018-06-21T03:07:19.166Z,17.87
2018-06-21T03:08:18.828Z,17.87
2018-06-21T03:09:18.733Z,17.94
2018-06-21T03:10:18.634Z,18.01
2018-06-21T03:11:18.539Z,18.03
2018-06-21T03:12:18.450Z,18.10
2018-06-21T03:13:18.348Z,18.07
2018-06-21T03:14:18.256Z,18.15
2018-06-21T03:15:18.150Z,18.11
2018-06-21T03:16:18.060Z,18.25
2018-06-21T03:17:17.975Z,18.18
2018-06-21T03:18:17.887Z,18.22
2018-06-21T03:19:17.781Z,18.25
2018-06-21T03:20:17.685Z,18.10
2018-06-21T03:21:17.578Z,18.15
2018-06-21T03:22:17.738Z,18.20
2018-06-21T03:23:17.391Z,18.13
2018-06-21T03:24:17.299Z,18.18
2018-06-21T03:25:17.205Z,18.11
2018-06-21T03:26:17.101Z,18.16
2018-06-21T03:27:17.008Z,18.11
2018-06-21T03:28:16.918Z,18.13
2018-06-21T03:29:16.819Z,18.18
2018-06-21T03:30:16.727Z,18.15
2018-06-21T03:31:16.626Z,18.25
2018-06-21T03:32:16.541Z,18.31
2018-06-21T03:33:16.442Z,18.25
2018-06-21T03:34:16.339Z,18.33
2018-06-21T03:35:16.251Z,18.41
2018-06-21T03:36:16.159Z,18.41
2018-06-21T03:37:16.052Z,18.56
2018-06-21T03:38:15.962Z,18.66
2018-06-21T03:39:15.872Z,18.73
2018-06-21T03:40:15.769Z,18.78
2018-06-21T03:41:15.676Z,18.71
2018-06-21T03:42:15.583Z,18.70
2018-06-21T03:43:15.483Z,18.77
2018-06-21T03:44:15.392Z,18.84
2018-06-21T03:45:15.307Z,18.77
2018-06-21T03:46:15.201Z,18.86
2018-06-21T03:47:15.108Z,18.88
2018-06-21T03:48:15.016Z,18.93
2018-06-21T03:49:14.916Z,18.93
2018-06-21T03:50:14.826Z,18.96
2018-06-21T03:51:14.733Z,19.11
2018-06-21T03:52:14.635Z,19.18
2018-06-21T03:53:14.536Z,19.39
2018-06-21T03:54:14.444Z,19.45
2018-06-21T03:55:14.348Z,19.36
2018-06-21T03:56:14.257Z,19.47
2018-06-21T03:57:14.161Z,19.52
2018-06-21T03:58:14.070Z,19.56
2018-06-21T03:59:13.965Z,19.52
2018-06-21T04:00:13.874Z,19.64
2018-06-21T04:01:13.799Z,19.84
2018-06-21T04:02:13.685Z,20.21
2018-06-21T04:03:13.635Z,20.65
2018-06-21T04:04:13.503Z,21.00
2018-06-21T04:05:13.407Z,21.36
2018-06-21T04:06:13.304Z,21.51
2018-06-21T04:07:13.216Z,21.52
2018-06-21T04:08:13.124Z,21.52
2018-06-21T04:09:13.038Z,21.46
2018-06-21T04:10:12.937Z,21.46
2018-06-21T04:11:12.838Z,21.30
2018-06-21T04:12:12.747Z,21.22
2018-06-21T04:13:12.659Z,21.24
2018-06-21T04:14:12.570Z,21.24
2018-06-21T04:15:12.470Z,21.24
2018-06-21T04:16:12.376Z,21.14
2018-06-21T04:17:12.283Z,21.17
2018-06-21T04:18:12.191Z,21.20
2018-06-21T04:19:12.107Z,21.25
2018-06-21T04:20:12.004Z,21.24
2018-06-21T04:21:11.906Z,21.29
2018-06-21T04:22:12.067Z,21.48
2018-06-21T04:23:11.722Z,21.67
2018-06-21T04:24:11.635Z,21.82
2018-06-21T04:25:11.533Z,21.72
2018-06-21T04:26:11.441Z,21.66
2018-06-21T04:27:11.349Z,21.67
2018-06-21T04:28:11.258Z,21.72
2018-06-21T04:29:11.173Z,21.76
2018-06-21T04:30:11.080Z,21.92
2018-06-21T04:31:10.976Z,22.02
2018-06-21T04:32:10.886Z,22.06
2018-06-21T04:33:10.789Z,22.13
2018-06-21T04:34:10.701Z,22.10
2018-06-21T04:35:10.612Z,22.17
2018-06-21T04:36:10.521Z,22.15
2018-06-21T04:37:10.415Z,22.26
2018-06-21T04:38:10.322Z,22.35
2018-06-21T04:39:10.234Z,22.72
2018-06-21T04:40:10.143Z,23.09
2018-06-21T04:41:10.058Z,23.66
2018-06-21T04:42:09.966Z,24.13
2018-06-21T04:43:09.870Z,24.48
2018-06-21T04:44:09.779Z,24.66
2018-06-21T04:45:09.681Z,24.88
2018-06-21T04:46:09.590Z,25.31
2018-06-21T04:47:09.512Z,25.63
2018-06-21T04:48:09.409Z,25.83
2018-06-21T04:49:09.314Z,26.19
2018-06-21T04:50:09.222Z,26.31
2018-06-21T04:51:09.149Z,26.58
2018-06-21T04:52:09.046Z,26.73
2018-06-21T04:53:08.951Z,26.75
2018-06-21T04:54:08.860Z,26.95
2018-06-21T04:55:08.766Z,27.20
2018-06-21T04:56:08.677Z,27.32
2018-06-21T04:57:08.590Z,27.40
2018-06-21T04:58:08.498Z,27.63
2018-06-21T04:59:08.405Z,27.85
2018-06-21T05:00:08.356Z,28.01
2018-06-21T05:01:08.240Z,28.20
2018-06-21T05:02:08.149Z,28.19
2018-06-21T05:03:08.058Z,28.27
2018-06-21T05:04:07.966Z,28.35
2018-06-21T05:05:07.871Z,28.59
2018-06-21T05:06:07.779Z,28.78
2018-06-21T05:07:07.945Z,28.59
2018-06-21T05:08:07.605Z,28.76
2018-06-21T05:09:07.522Z,28.85
2018-06-21T05:10:07.434Z,28.84
2018-06-21T05:11:07.342Z,28.85
2018-06-21T05:12:07.248Z,28.94
2018-06-21T05:13:07.161Z,29.10
2018-06-21T05:14:07.083Z,29.19
2018-06-21T05:15:06.991Z,29.17
2018-06-21T05:16:06.898Z,29.19
2018-06-21T05:17:06.812Z,29.27
2018-06-21T05:18:06.723Z,29.53
2018-06-21T05:19:06.641Z,29.54
2018-06-21T05:20:06.552Z,29.54
2018-06-21T05:21:06.455Z,29.65
2018-06-21T05:22:06.377Z,29.60
2018-06-21T05:23:06.291Z,29.65
2018-06-21T05:24:06.214Z,29.54
2018-06-21T05:25:06.163Z,29.57
2018-06-21T05:26:06.027Z,29.36
2018-06-21T05:27:05.939Z,29.84
2018-06-21T05:28:05.858Z,29.49
2018-06-21T05:29:05.776Z,28.76
2018-06-21T05:30:05.682Z,28.67
2018-06-21T05:31:05.596Z,28.08
2018-06-21T05:32:05.529Z,27.75
2018-06-21T05:33:05.419Z,27.45
2018-06-21T05:34:05.344Z,27.44
2018-06-21T05:35:05.253Z,27.48
2018-06-21T05:36:05.162Z,28.19
2018-06-21T05:37:05.079Z,28.84
2018-06-21T05:38:04.992Z,29.13
2018-06-21T05:39:04.902Z,29.87
2018-06-21T05:40:04.824Z,30.12
2018-06-21T05:41:04.730Z,30.09
2018-06-21T05:42:04.889Z,30.34
2018-06-21T05:43:04.557Z,30.35
2018-06-21T05:44:04.467Z,30.75
2018-06-21T05:45:04.383Z,31.03
2018-06-21T05:46:04.301Z,30.96
2018-06-21T05:47:04.210Z,31.07
2018-06-21T05:48:04.131Z,31.07
2018-06-21T05:49:04.047Z,30.46
2018-06-21T05:50:03.957Z,30.25
2018-06-21T05:51:03.874Z,30.73
2018-06-21T05:52:03.783Z,30.81
2018-06-21T05:53:03.699Z,30.88
2018-06-21T05:54:03.610Z,30.75
2018-06-21T05:55:03.535Z,29.76
2018-06-21T05:56:03.443Z,29.69
2018-06-21T05:57:03.350Z,30.18
2018-06-21T05:58:03.271Z,29.54
2018-06-21T05:59:03.183Z,29.34
2018-06-21T06:00:03.103Z,29.42
2018-06-21T06:01:03.017Z,29.56
2018-06-21T06:02:03.016Z,29.02
2018-06-21T06:03:02.841Z,28.85
2018-06-21T06:04:02.757Z,28.59
2018-06-21T06:05:02.678Z,28.30
2018-06-21T06:06:02.590Z,28.11
2018-06-21T06:07:02.510Z,27.96
2018-06-21T06:08:02.422Z,28.45
2018-06-21T06:09:02.324Z,28.81
2018-06-21T06:10:02.306Z,29.53
2018-06-21T06:11:02.155Z,29.20
2018-06-21T06:12:02.077Z,28.88
2018-06-21T06:13:01.990Z,28.75
2018-06-21T06:14:01.985Z,28.49
2018-06-21T06:15:01.827Z,28.35
2018-06-21T06:16:01.729Z,28.30
2018-06-21T06:17:01.645Z,28.12
2018-06-21T06:18:01.559Z,28.00
2018-06-21T06:19:01.471Z,27.82
2018-06-21T06:20:01.414Z,27.51
2018-06-21T06:21:01.297Z,27.51
2018-06-21T06:22:01.206Z,27.39
2018-06-21T06:23:01.127Z,27.45
2018-06-21T06:24:01.035Z,27.42
2018-06-21T06:25:00.948Z,27.37
2018-06-21T06:26:00.869Z,27.37
2018-06-21T06:27:00.775Z,27.39
2018-06-21T06:28:00.684Z,27.29
2018-06-21T06:29:00.612Z,27.18
2018-06-21T06:30:00.520Z,27.10
2018-06-21T06:31:00.432Z,27.05
2018-06-21T06:32:00.339Z,26.96
2018-06-21T06:33:00.258Z,26.89
2018-06-21T06:34:00.166Z,26.95
2018-06-21T06:35:00.106Z,26.93
2018-06-21T06:35:59.986Z,26.92
2018-06-21T06:36:59.917Z,26.96
2018-06-21T06:37:59.814Z,26.88
2018-06-21T06:38:59.724Z,26.92
2018-06-21T06:39:59.634Z,26.93
2018-06-21T06:40:59.547Z,26.93
2018-06-21T06:41:59.469Z,27.03
2018-06-21T06:42:59.374Z,26.96
2018-06-21T06:43:59.291Z,26.90
2018-06-21T06:44:59.197Z,26.84
2018-06-21T06:45:59.123Z,26.83
2018-06-21T06:46:59.026Z,26.95
2018-06-21T06:47:58.935Z,26.90
2018-06-21T06:48:58.839Z,26.97
2018-06-21T06:49:58.751Z,26.92
2018-06-21T06:50:58.677Z,26.95
2018-06-21T06:51:58.586Z,27.00
2018-06-21T06:52:58.491Z,27.40
2018-06-21T06:53:58.413Z,28.67
2018-06-21T06:54:58.311Z,28.39
2018-06-21T06:55:58.217Z,28.14
2018-06-21T06:56:58.142Z,27.98
2018-06-21T06:57:58.053Z,27.75
2018-06-21T06:58:57.959Z,27.74
2018-06-21T06:59:57.866Z,27.77
2018-06-21T07:00:57.779Z,27.92
2018-06-21T07:01:57.700Z,28.64
2018-06-21T07:02:57.612Z,28.64
2018-06-21T07:03:57.521Z,29.19
2018-06-21T07:04:57.426Z,30.13
2018-06-21T07:05:57.337Z,29.73
2018-06-21T07:06:57.259Z,29.56
2018-06-21T07:07:57.169Z,29.31
2018-06-21T07:08:57.073Z,29.19
2018-06-21T07:09:56.983Z,29.10
2018-06-21T07:10:56.907Z,29.02
2018-06-21T07:11:56.815Z,28.91
2018-06-21T07:12:56.729Z,28.98
2018-06-21T07:13:56.639Z,29.35
2018-06-21T07:14:56.552Z,29.54
2018-06-21T07:15:56.463Z,29.41
2018-06-21T07:16:56.375Z,29.10
2018-06-21T07:17:56.296Z,28.97
2018-06-21T07:18:56.209Z,29.04
2018-06-21T07:19:56.118Z,28.97
2018-06-21T07:20:56.029Z,29.07
2018-06-21T07:21:55.945Z,29.16
2018-06-21T07:22:55.856Z,29.14
2018-06-21T07:23:55.766Z,28.98
2018-06-21T07:24:55.685Z,28.91
2018-06-21T07:25:55.592Z,28.84
2018-06-21T07:26:55.506Z,28.82
2018-06-21T07:27:55.430Z,28.97
2018-06-21T07:28:55.341Z,29.59
2018-06-21T07:29:55.248Z,30.43
2018-06-21T07:30:55.152Z,31.14
2018-06-21T07:31:55.077Z,30.92
2018-06-21T07:32:54.988Z,31.34
2018-06-21T07:33:54.896Z,31.76
2018-06-21T07:34:54.816Z,31.87
2018-06-21T07:35:54.726Z,32.29
2018-06-21T07:36:54.631Z,32.11
2018-06-21T07:37:54.552Z,32.01
2018-06-21T07:38:54.474Z,31.74
2018-06-21T07:39:54.392Z,31.10
2018-06-21T07:40:54.295Z,30.66
2018-06-21T07:41:54.204Z,30.66
2018-06-21T07:42:54.123Z,30.12
2018-06-21T07:43:54.045Z,30.21
2018-06-21T07:44:53.958Z,30.77
2018-06-21T07:45:53.869Z,30.88
2018-06-21T07:46:53.835Z,31.14
2018-06-21T07:47:53.693Z,31.29
2018-06-21T07:48:53.620Z,31.27
2018-06-21T07:49:53.540Z,31.25
2018-06-21T07:50:53.453Z,31.22
2018-06-21T07:51:53.365Z,31.59
2018-06-21T07:52:53.279Z,31.62
2018-06-21T07:53:53.207Z,32.01
2018-06-21T07:54:53.112Z,31.61
2018-06-21T07:55:53.021Z,31.58
2018-06-21T07:56:52.939Z,31.90
2018-06-21T07:57:52.850Z,32.08
2018-06-21T07:58:52.773Z,32.14
2018-06-21T07:59:52.681Z,31.84
2018-06-21T08:00:52.606Z,31.51
2018-06-21T08:01:52.517Z,31.25
2018-06-21T08:02:52.435Z,31.42
2018-06-21T08:03:52.343Z,31.05
2018-06-21T08:04:52.269Z,31.06
2018-06-21T08:05:52.183Z,30.57
2018-06-21T08:06:52.099Z,30.66
2018-06-21T08:07:52.007Z,31.43
2018-06-21T08:08:51.923Z,31.14
2018-06-21T08:09:51.834Z,30.91
2018-06-21T08:10:51.762Z,30.43
2018-06-21T08:11:51.670Z,29.88
2018-06-21T08:12:51.642Z,29.73
2018-06-21T08:13:51.497Z,29.79
2018-06-21T08:14:51.417Z,29.66
2018-06-21T08:15:51.326Z,29.49
2018-06-21T08:16:51.251Z,29.42
2018-06-21T08:17:51.162Z,29.22
2018-06-21T08:18:51.083Z,29.24
2018-06-21T08:19:50.991Z,29.24
2018-06-21T08:20:50.909Z,29.75
2018-06-21T08:21:50.819Z,29.45
2018-06-21T08:22:50.732Z,29.27
2018-06-21T08:23:50.655Z,29.36
2018-06-21T08:24:50.565Z,30.21
2018-06-21T08:25:50.487Z,30.94
2018-06-21T08:26:50.460Z,30.77
2018-06-21T08:27:50.312Z,31.06
2018-06-21T08:28:50.226Z,30.84
2018-06-21T08:29:50.134Z,31.71
2018-06-21T08:30:50.057Z,31.74
2018-06-21T08:31:49.968Z,31.31
2018-06-21T08:32:49.885Z,31.15
2018-06-21T08:33:49.793Z,30.94
2018-06-21T08:34:49.708Z,30.91
2018-06-21T08:35:49.628Z,30.96
2018-06-21T08:36:49.533Z,30.90
2018-06-21T08:37:49.456Z,30.69
2018-06-21T08:38:49.391Z,30.66
2018-06-21T08:39:49.285Z,30.81
2018-06-21T08:40:49.202Z,30.96
2018-06-21T08:41:49.107Z,31.14
2018-06-21T08:42:49.027Z,31.29
2018-06-21T08:43:48.935Z,31.46
2018-06-21T08:44:48.861Z,31.39
2018-06-21T08:45:48.833Z,31.55
2018-06-21T08:46:48.691Z,31.93
2018-06-21T08:47:48.598Z,31.78
2018-06-21T08:48:48.506Z,31.17
2018-06-21T08:49:48.426Z,31.06
2018-06-21T08:50:48.340Z,31.07
2018-06-21T08:51:48.262Z,31.61
2018-06-21T08:52:48.167Z,31.74
2018-06-21T08:53:48.091Z,32.53
2018-06-21T08:54:47.999Z,32.89
2018-06-21T08:55:47.924Z,32.60
2018-06-21T08:56:47.836Z,32.30
2018-06-21T08:57:47.756Z,31.87
2018-06-21T08:58:47.660Z,31.77
2018-06-21T08:59:47.582Z,31.78
2018-06-21T09:00:47.495Z,31.54
2018-06-21T09:01:47.416Z,31.31
2018-06-21T09:02:47.340Z,30.97
2018-06-21T09:03:47.254Z,31.31
2018-06-21T09:04:47.154Z,31.40
2018-06-21T09:05:47.075Z,31.52
2018-06-21T09:06:46.988Z,31.66
2018-06-21T09:07:46.910Z,31.69
2018-06-21T09:08:46.817Z,32.56
2018-06-21T09:09:46.751Z,32.96
2018-06-21T09:10:46.645Z,33.28
2018-06-21T09:11:46.566Z,33.46
2018-06-21T09:12:46.494Z,33.59
2018-06-21T09:13:46.401Z,33.83
2018-06-21T09:14:46.321Z,33.79
2018-06-21T09:15:46.243Z,34.20
2018-06-21T09:16:46.159Z,33.83
2018-06-21T09:17:46.076Z,33.62
2018-06-21T09:18:45.985Z,34.06
2018-06-21T09:19:45.907Z,34.05
2018-06-21T09:20:45.811Z,34.39
2018-06-21T09:21:45.734Z,34.39
2018-06-21T09:22:45.660Z,34.24
2018-06-21T09:23:45.570Z,34.47
2018-06-21T09:24:45.489Z,34.23
2018-06-21T09:25:45.409Z,33.68
2018-06-21T09:26:45.316Z,34.32
2018-06-21T09:27:45.238Z,34.70
2018-06-21T09:28:45.163Z,34.96
2018-06-21T09:29:45.075Z,35.23
2018-06-21T09:30:44.993Z,35.78
2018-06-21T09:31:44.916Z,35.83
2018-06-21T09:32:44.827Z,36.09
2018-06-21T09:33:44.749Z,36.17
2018-06-21T09:34:44.681Z,36.40
2018-06-21T09:35:44.595Z,35.92
2018-06-21T09:36:44.503Z,36.09
2018-06-21T09:37:44.418Z,35.67
2018-06-21T09:38:44.344Z,34.88
2018-06-21T09:39:44.271Z,33.68
2018-06-21T09:40:44.184Z,33.47
2018-06-21T09:41:44.093Z,32.86
2018-06-21T09:42:44.015Z,32.29
2018-06-21T09:43:50.291Z,31.73
2018-06-21T09:44:43.862Z,31.62
2018-06-21T09:45:43.785Z,31.36
2018-06-21T09:46:43.689Z,31.24
2018-06-21T09:47:43.612Z,30.53
2018-06-21T09:48:43.539Z,30.30
2018-06-21T09:49:43.457Z,30.10
2018-06-21T09:50:43.368Z,30.10
2018-06-21T09:51:43.289Z,30.25
2018-06-21T09:52:43.208Z,30.35
2018-06-21T09:53:43.118Z,30.91
2018-06-21T09:54:43.049Z,31.06
2018-06-21T09:55:42.964Z,31.44
2018-06-21T09:56:42.869Z,31.59
2018-06-21T09:57:42.807Z,31.54
2018-06-21T09:58:42.709Z,31.94
2018-06-21T09:59:42.621Z,32.12
2018-06-21T10:00:42.546Z,31.97
2018-06-21T10:01:42.454Z,31.74
2018-06-21T10:02:42.374Z,31.66
2018-06-21T10:03:42.296Z,31.89
2018-06-21T10:04:42.210Z,32.43
2018-06-21T10:05:42.132Z,32.65
2018-06-21T10:06:42.039Z,32.46
2018-06-21T10:07:41.960Z,32.40
2018-06-21T10:08:41.878Z,32.26
2018-06-21T10:09:41.787Z,32.18
2018-06-21T10:10:41.715Z,31.96
2018-06-21T10:11:41.635Z,31.66
2018-06-21T10:12:41.538Z,31.74
2018-06-21T10:13:41.462Z,31.56
2018-06-21T10:14:41.374Z,31.58
2018-06-21T10:15:41.330Z,31.66
2018-06-21T10:16:41.209Z,31.31
2018-06-21T10:17:41.129Z,31.20
2018-06-21T10:18:41.043Z,31.51
2018-06-21T10:19:40.956Z,31.24
2018-06-21T10:20:40.879Z,30.99
2018-06-21T10:21:40.792Z,30.90
2018-06-21T10:22:40.712Z,31.07
2018-06-21T10:23:40.634Z,30.90
2018-06-21T10:24:40.539Z,30.85
2018-06-21T10:25:40.467Z,31.05
2018-06-21T10:26:40.371Z,31.33
2018-06-21T10:27:40.291Z,31.46
2018-06-21T10:28:40.205Z,31.36
2018-06-21T10:29:40.127Z,31.52
2018-06-21T10:30:40.046Z,31.27
2018-06-21T10:31:39.956Z,30.94
2018-06-21T10:32:39.876Z,29.84
2018-06-21T10:33:39.782Z,28.79
2018-06-21T10:34:39.710Z,26.66
2018-06-21T10:35:39.619Z,25.62
2018-06-21T10:36:39.537Z,24.50
2018-06-21T10:37:39.450Z,23.95
2018-06-21T10:38:39.368Z,23.87
2018-06-21T10:39:39.275Z,23.83
2018-06-21T10:40:39.190Z,23.43
2018-06-21T10:41:39.110Z,23.03
2018-06-21T10:42:39.045Z,22.63
2018-06-21T10:43:38.936Z,22.30
2018-06-21T10:44:38.850Z,21.76
2018-06-21T10:45:38.758Z,21.43
2018-06-21T10:46:38.672Z,21.14
2018-06-21T10:47:38.592Z,20.88
2018-06-21T10:48:38.496Z,20.70
2018-06-21T10:49:38.407Z,20.41
2018-06-21T10:50:38.317Z,20.40
2018-06-21T10:51:38.238Z,20.32
2018-06-21T10:52:38.146Z,20.18
2018-06-21T10:53:38.055Z,19.85
2018-06-21T10:54:37.966Z,19.52
2018-06-21T10:55:37.873Z,18.86
2018-06-21T10:56:37.789Z,18.55
2018-06-21T10:57:37.696Z,18.18
2018-06-21T10:58:37.603Z,17.74
2018-06-21T10:59:37.510Z,17.42
2018-06-21T11:00:37.425Z,17.19
2018-06-21T11:01:37.333Z,17.06
2018-06-21T11:02:37.240Z,17.01
2018-06-21T11:03:37.148Z,16.97
2018-06-21T11:04:37.056Z,16.97
2018-06-21T11:05:36.964Z,16.96
2018-06-21T11:06:36.870Z,17.06
2018-06-21T11:07:36.776Z,17.89
2018-06-21T11:08:36.744Z,18.34
2018-06-21T11:09:36.590Z,18.38
2018-06-21T11:10:36.496Z,18.44
2018-06-21T11:11:36.393Z,18.55
2018-06-21T11:12:36.307Z,18.78
2018-06-21T11:13:36.215Z,19.02
2018-06-21T11:14:36.125Z,18.84
2018-06-21T11:15:36.031Z,18.81
2018-06-21T11:16:35.932Z,18.98
2018-06-21T11:17:35.840Z,18.96
2018-06-21T11:18:35.751Z,18.89
2018-06-21T11:19:35.662Z,18.81
2018-06-21T11:20:35.553Z,18.98
2018-06-21T11:21:35.462Z,19.16
2018-06-21T11:22:35.377Z,19.56
2018-06-21T11:23:35.282Z,19.51
2018-06-21T11:24:35.190Z,19.67
2018-06-21T11:25:35.099Z,19.70
2018-06-21T11:26:34.996Z,19.67
2018-06-21T11:27:34.917Z,19.64
2018-06-21T11:28:34.821Z,19.49
2018-06-21T11:29:34.728Z,19.37
2018-06-21T11:30:34.632Z,19.12
2018-06-21T11:31:34.540Z,18.95
2018-06-21T11:32:34.443Z,18.84
2018-06-21T11:33:34.349Z,18.70
2018-06-21T11:34:34.261Z,18.52
2018-06-21T11:35:34.169Z,18.56
2018-06-21T11:36:34.081Z,18.66
2018-06-21T11:37:33.984Z,18.90
2018-06-21T11:38:33.896Z,19.19
2018-06-21T11:39:33.794Z,19.41
2018-06-21T11:40:33.697Z,20.40
2018-06-21T11:41:33.856Z,21.22
2018-06-21T11:42:33.517Z,21.50
2018-06-21T11:43:33.428Z,22.02
2018-06-21T11:44:33.372Z,22.30
2018-06-21T11:45:33.250Z,21.45
2018-06-21T11:46:33.154Z,20.69
2018-06-21T11:47:33.064Z,20.09
2018-06-21T11:48:32.980Z,19.94
2018-06-21T11:49:32.888Z,19.54
2018-06-21T11:50:32.811Z,19.33
2018-06-21T11:51:32.703Z,19.09
2018-06-21T11:52:32.607Z,18.78
2018-06-21T11:53:32.518Z,18.75
2018-06-21T11:54:32.445Z,18.92
2018-06-21T11:55:32.342Z,18.74
2018-06-21T11:56:32.247Z,18.37
2018-06-21T11:57:32.144Z,18.25
2018-06-21T11:58:32.051Z,17.90
2018-06-21T11:59:31.960Z,17.92
2018-06-21T12:00:31.874Z,17.33
2018-06-21T12:01:31.782Z,17.06
2018-06-21T12:02:31.688Z,16.68
2018-06-21T12:03:31.596Z,16.61
2018-06-21T12:04:31.510Z,16.50
2018-06-21T12:05:31.419Z,16.29
2018-06-21T12:06:31.331Z,16.24
2018-06-21T12:07:31.239Z,16.12
2018-06-21T12:08:31.131Z,16.00
2018-06-21T12:09:31.045Z,16.01
2018-06-21T12:10:30.953Z,15.79
2018-06-21T12:11:30.862Z,15.76
2018-06-21T12:12:30.768Z,15.79
2018-06-21T12:13:30.663Z,15.64
2018-06-21T12:14:30.577Z,15.55
2018-06-21T12:15:30.486Z,15.46
2018-06-21T12:16:30.397Z,15.40
2018-06-21T12:17:30.294Z,15.31
2018-06-21T12:18:30.199Z,15.24
2018-06-21T12:19:30.108Z,15.28
2018-06-21T12:20:30.010Z,15.25
2018-06-21T12:21:29.918Z,15.22
2018-06-21T12:22:29.825Z,15.24
2018-06-21T12:23:29.726Z,15.21
2018-06-21T12:24:29.627Z,15.24
2018-06-21T12:25:29.537Z,15.15
2018-06-21T12:26:29.444Z,15.15
2018-06-21T12:27:29.348Z,15.18
2018-06-21T12:28:29.257Z,15.19
2018-06-21T12:29:29.155Z,15.11
2018-06-21T12:30:29.057Z,15.06
2018-06-21T12:31:28.972Z,15.14
2018-06-21T12:32:28.868Z,15.00
2018-06-21T12:33:28.790Z,14.94
2018-06-21T12:34:28.673Z,14.89
2018-06-21T12:35:28.582Z,14.78
2018-06-21T12:36:28.486Z,14.70
2018-06-21T12:37:28.383Z,14.78
2018-06-21T12:38:28.296Z,14.86
2018-06-21T12:39:28.194Z,14.88
2018-06-21T12:40:28.105Z,14.85
2018-06-21T12:41:28.016Z,14.94
2018-06-21T12:42:27.918Z,14.92
2018-06-21T12:43:27.814Z,14.92
2018-06-21T12:44:27.714Z,15.00
2018-06-21T12:45:27.624Z,14.99
2018-06-21T12:46:27.525Z,15.09
2018-06-21T12:47:27.432Z,15.10
2018-06-21T12:48:27.325Z,14.91
2018-06-21T12:49:27.234Z,15.02
2018-06-21T12:50:27.146Z,14.94
2018-06-21T12:51:27.043Z,14.88